createdAt,value
2022-07-25T00:02:03.625Z,3.22
2022-07-25T00:04:30.932Z,3.33
2022-07-25T00:06:58.206Z,3.20
2022-07-25T00:09:25.567Z,2.90
2022-07-25T00:11:52.758Z,2.88
2022-07-25T00:14:19.942Z,3.08
2022-07-25T00:16:47.355Z,3.53
2022-07-25T00:19:14.657Z,2.80
2022-07-25T00:21:41.870Z,3.20
2022-07-25T00:24:09.919Z,3.10
2022-07-25T00:26:40.267Z,3.08
2022-07-25T00:29:08.103Z,3.65
2022-07-25T00:31:35.914Z,3.22
2022-07-25T00:34:04.151Z,2.85
2022-07-25T00:36:31.666Z,3.13
2022-07-25T00:38:59.134Z,3.00
2022-07-25T00:41:26.388Z,3.10
2022-07-25T00:43:53.705Z,2.95
2022-07-25T00:46:21.200Z,3.50
2022-07-25T00:48:48.841Z,2.75
2022-07-25T00:51:17.637Z,3.15
2022-07-25T00:53:46.075Z,3.00
2022-07-25T00:56:13.481Z,3.03
2022-07-25T00:58:40.735Z,2.95
2022-07-25T01:01:08.319Z,3.22
2022-07-25T01:03:35.720Z,2.85
2022-07-25T01:06:03.808Z,3.25
2022-07-25T01:08:32.242Z,2.70
2022-07-25T01:10:59.770Z,2.72
2022-07-25T01:13:27.004Z,2.83
2022-07-25T01:15:54.495Z,2.45
2022-07-25T01:18:21.817Z,2.28
2022-07-25T01:20:49.165Z,2.25
2022-07-25T01:23:16.686Z,2.17
2022-07-25T01:25:44.213Z,3.15
2022-07-25T01:28:11.929Z,2.17
2022-07-25T01:30:39.732Z,2.17
2022-07-25T01:33:07.372Z,2.03
2022-07-25T01:35:36.212Z,2.17
2022-07-25T01:38:05.404Z,1.97
2022-07-25T01:40:32.649Z,2.00
2022-07-25T01:42:59.932Z,2.08
2022-07-25T01:45:27.440Z,2.28
2022-07-25T01:47:54.749Z,2.13
2022-07-25T01:50:22.146Z,1.77
2022-07-25T01:52:49.741Z,1.83
2022-07-25T01:55:17.378Z,1.83
2022-07-25T01:57:49.549Z,1.70
2022-07-25T02:00:18.227Z,1.40
2022-07-25T02:02:46.105Z,1.80
2022-07-25T02:05:14.791Z,1.67
2022-07-25T02:07:42.252Z,1.88
2022-07-25T02:10:09.740Z,1.80
2022-07-25T02:12:37.026Z,1.40
2022-07-25T02:15:05.033Z,1.90
2022-07-25T02:17:32.334Z,1.80
2022-07-25T02:19:59.506Z,1.80
2022-07-25T02:22:26.898Z,1.50
2022-07-25T02:24:54.219Z,2.05
2022-07-25T02:27:21.545Z,2.10
2022-07-25T02:29:48.950Z,1.83
2022-07-25T02:32:16.168Z,1.73
2022-07-25T02:34:43.356Z,1.80
2022-07-25T02:37:11.172Z,1.58
2022-07-25T02:39:38.470Z,2.00
2022-07-25T02:42:05.742Z,2.33
2022-07-25T02:44:33.272Z,2.28
2022-07-25T02:47:00.461Z,2.30
2022-07-25T02:49:27.726Z,1.92
2022-07-25T02:51:55.100Z,2.35
2022-07-25T02:54:22.295Z,1.83
2022-07-25T02:56:49.521Z,2.00
2022-07-25T02:59:17.015Z,1.85
2022-07-25T03:01:44.308Z,2.10
2022-07-25T03:04:11.822Z,2.22
2022-07-25T03:06:39.290Z,1.70
2022-07-25T03:09:06.483Z,2.30
2022-07-25T03:11:34.787Z,2.22
2022-07-25T03:14:02.235Z,1.83
2022-07-25T03:16:29.635Z,2.45
2022-07-25T03:18:56.839Z,2.55
2022-07-25T03:21:24.223Z,2.00
2022-07-25T03:23:52.837Z,1.85
2022-07-25T03:26:20.591Z,2.28
2022-07-25T03:28:48.003Z,1.80
2022-07-25T03:31:15.321Z,1.92
2022-07-25T03:33:42.687Z,1.88
2022-07-25T03:36:10.590Z,1.65
2022-07-25T03:38:37.864Z,1.77
2022-07-25T03:41:05.598Z,1.90
2022-07-25T03:43:32.966Z,1.77
2022-07-25T03:46:00.239Z,1.90
2022-07-25T03:48:27.495Z,2.40
2022-07-25T03:50:56.705Z,1.30
2022-07-25T03:53:23.871Z,1.50
2022-07-25T03:55:51.076Z,1.80
2022-07-25T03:58:18.473Z,1.52
2022-07-25T04:00:45.760Z,1.73
2022-07-25T04:03:13.586Z,1.65
2022-07-25T04:05:47.270Z,1.60
2022-07-25T04:08:15.099Z,2.00
2022-07-25T04:10:42.470Z,1.08
2022-07-25T04:13:10.122Z,1.52
2022-07-25T04:15:37.328Z,1.50
2022-07-25T04:18:06.257Z,1.40
2022-07-25T04:20:37.629Z,1.55
2022-07-25T04:23:04.899Z,1.80
2022-07-25T04:25:32.331Z,1.65
2022-07-25T04:27:59.526Z,1.38
2022-07-25T04:30:26.884Z,1.75
2022-07-25T04:32:54.265Z,1.38
2022-07-25T04:35:21.554Z,1.63
2022-07-25T04:37:49.138Z,1.60
2022-07-25T04:40:16.902Z,1.63
2022-07-25T04:42:44.211Z,2.00
2022-07-25T04:45:11.838Z,1.70
2022-07-25T04:47:39.299Z,1.50
2022-07-25T04:50:08.175Z,1.40
2022-07-25T04:52:35.466Z,1.40
2022-07-25T04:55:04.253Z,1.60
2022-07-25T04:57:31.977Z,1.90
2022-07-25T04:59:59.235Z,1.75
2022-07-25T05:02:26.955Z,1.63
2022-07-25T05:04:54.164Z,1.48
2022-07-25T05:07:21.422Z,1.60
2022-07-25T05:09:48.945Z,1.77
2022-07-25T05:12:16.226Z,1.83
2022-07-25T05:14:43.448Z,1.70
2022-07-25T05:17:11.089Z,1.58
2022-07-25T05:19:38.468Z,1.52
2022-07-25T05:22:05.677Z,1.50
2022-07-25T05:24:34.601Z,2.08
2022-07-25T05:27:02.275Z,1.63
2022-07-25T05:29:29.455Z,1.42
2022-07-25T05:31:57.057Z,1.13
2022-07-25T05:34:24.773Z,1.17
2022-07-25T05:36:51.943Z,1.10
2022-07-25T05:39:19.385Z,1.17
2022-07-25T05:41:46.627Z,1.00
2022-07-25T05:44:14.044Z,1.10
2022-07-25T05:46:41.840Z,0.90
2022-07-25T05:49:09.420Z,1.20
2022-07-25T05:51:36.710Z,1.17
2022-07-25T05:54:04.384Z,1.15
2022-07-25T05:56:38.381Z,1.00
2022-07-25T05:59:05.817Z,1.17
2022-07-25T06:01:33.057Z,1.23
2022-07-25T06:04:00.389Z,1.20
2022-07-25T06:06:27.837Z,0.93
2022-07-25T06:08:55.049Z,1.13
2022-07-25T06:11:22.536Z,1.20
2022-07-25T06:13:50.747Z,1.25
2022-07-25T06:16:18.827Z,1.45
2022-07-25T06:18:46.167Z,1.27
2022-07-25T06:21:13.679Z,1.35
2022-07-25T06:23:41.171Z,1.10
2022-07-25T06:26:11.605Z,1.30
2022-07-25T06:28:39.054Z,0.98
2022-07-25T06:31:06.541Z,1.05
2022-07-25T06:33:33.760Z,1.10
2022-07-25T06:36:01.169Z,1.08
2022-07-25T06:38:28.341Z,0.95
2022-07-25T06:40:55.525Z,1.15
2022-07-25T06:43:23.009Z,1.08
2022-07-25T06:45:50.721Z,0.85
2022-07-25T06:48:18.136Z,1.15
2022-07-25T06:50:45.619Z,1.15
2022-07-25T06:53:12.995Z,1.10
2022-07-25T06:55:40.183Z,1.48
2022-07-25T06:58:07.613Z,1.33
2022-07-25T07:00:34.898Z,1.23
2022-07-25T07:03:02.655Z,1.30
2022-07-25T07:05:33.002Z,1.17
2022-07-25T07:08:00.791Z,1.58
2022-07-25T07:10:28.344Z,1.10
2022-07-25T07:13:12.556Z,1.27
2022-07-25T07:15:45.119Z,1.20
2022-07-25T07:18:12.726Z,1.23
2022-07-25T07:20:39.942Z,1.20
2022-07-25T07:23:07.219Z,1.02
2022-07-25T07:25:36.445Z,1.25
2022-07-25T07:28:04.222Z,1.30
2022-07-25T07:30:58.330Z,1.20
2022-07-25T07:33:20.081Z,1.20
2022-07-25T07:35:47.381Z,1.20
2022-07-25T07:38:14.929Z,1.73
2022-07-25T07:40:42.398Z,0.98
2022-07-25T07:43:09.637Z,1.33
2022-07-25T07:45:36.966Z,1.50
2022-07-25T07:48:04.529Z,1.35
2022-07-25T07:50:31.874Z,1.30
2022-07-25T07:52:59.144Z,1.77
2022-07-25T07:55:45.684Z,1.73
2022-07-25T07:58:17.364Z,1.40
2022-07-25T08:00:47.143Z,1.75
2022-07-25T08:03:18.711Z,2.60
2022-07-25T08:05:49.078Z,2.30
2022-07-25T08:08:16.971Z,2.10
2022-07-25T08:10:46.474Z,2.13
2022-07-25T08:13:19.892Z,1.47
2022-07-25T08:15:49.794Z,1.40
2022-07-25T08:18:18.353Z,1.50
2022-07-25T08:20:46.980Z,1.90
2022-07-25T08:23:15.014Z,1.55
2022-07-25T08:25:43.451Z,1.65
2022-07-25T08:28:10.916Z,1.90
2022-07-25T08:30:39.338Z,1.65
2022-07-25T08:33:13.558Z,1.65
2022-07-25T08:35:42.068Z,1.33
2022-07-25T08:38:11.725Z,1.67
2022-07-25T08:40:39.290Z,1.60
2022-07-25T08:43:06.641Z,1.75
2022-07-25T08:45:34.113Z,1.58
2022-07-25T08:48:01.277Z,1.90
2022-07-25T08:50:30.265Z,1.90
2022-07-25T08:53:23.049Z,2.05
2022-07-25T08:55:46.848Z,2.00
2022-07-25T08:58:16.632Z,2.03
2022-07-25T09:00:44.494Z,1.77
2022-07-25T09:03:12.385Z,2.28
2022-07-25T09:05:40.445Z,2.20
2022-07-25T09:08:17.544Z,2.17
2022-07-25T09:10:50.570Z,2.20
2022-07-25T09:13:19.435Z,2.15
2022-07-25T09:15:53.919Z,2.00
2022-07-25T09:18:26.491Z,1.95
2022-07-25T09:20:59.576Z,2.30
2022-07-25T09:23:35.116Z,2.30
2022-07-25T09:26:08.319Z,2.17
2022-07-25T09:28:47.877Z,2.33
2022-07-25T09:31:17.146Z,2.17
2022-07-25T09:33:49.883Z,2.40
2022-07-25T09:36:18.104Z,2.15
2022-07-25T09:38:56.100Z,2.40
2022-07-25T09:41:37.384Z,1.88
2022-07-25T09:44:15.728Z,2.30
2022-07-25T09:46:43.321Z,2.40
2022-07-25T09:49:14.493Z,2.00
2022-07-25T09:51:42.906Z,2.35
2022-07-25T09:54:10.451Z,2.20
2022-07-25T09:56:37.895Z,2.70
2022-07-25T09:59:05.710Z,2.13
2022-07-25T10:06:17.740Z,2.00
2022-07-25T10:08:45.432Z,1.63
2022-07-25T10:11:23.664Z,2.53
2022-07-25T10:13:52.809Z,2.40
2022-07-25T10:16:22.784Z,2.40
2022-07-25T10:18:53.073Z,2.40
2022-07-25T10:21:26.791Z,2.45
2022-07-25T10:24:13.368Z,2.30
2022-07-25T10:26:52.637Z,2.35
2022-07-25T10:29:19.994Z,2.88
2022-07-25T10:31:50.998Z,2.30
2022-07-25T10:34:30.786Z,2.53
2022-07-25T10:37:18.235Z,2.67
2022-07-25T10:39:46.642Z,2.47
2022-07-25T10:42:16.221Z,2.13
2022-07-25T10:44:49.186Z,2.63
2022-07-25T10:47:18.280Z,2.30
2022-07-25T10:50:13.940Z,2.38
2022-07-25T10:52:41.596Z,2.30
2022-07-25T10:56:05.372Z,2.92
2022-07-25T10:58:54.318Z,2.65
2022-07-25T11:01:31.894Z,2.75
2022-07-25T11:04:03.205Z,2.47
2022-07-25T11:06:39.886Z,2.70
2022-07-25T11:09:45.317Z,3.17
2022-07-25T11:12:16.610Z,2.60
2022-07-25T11:14:43.956Z,2.72
2022-07-25T11:17:23.774Z,3.17
2022-07-25T11:19:59.531Z,2.65
2022-07-25T11:22:27.998Z,3.08
2022-07-25T11:28:47.341Z,2.83
2022-07-25T11:31:16.692Z,2.80
2022-07-25T11:33:47.487Z,2.85
2022-07-25T11:36:15.233Z,3.00
2022-07-25T11:38:47.191Z,2.50
2022-07-25T11:41:14.522Z,2.53
2022-07-25T11:43:48.713Z,2.40
2022-07-25T11:46:18.329Z,2.65
2022-07-25T11:48:45.894Z,2.38
2022-07-25T11:51:19.432Z,2.97
2022-07-25T11:53:49.895Z,3.15
2022-07-25T11:59:10.227Z,2.45
2022-07-25T12:01:40.663Z,2.75
2022-07-25T12:04:19.863Z,2.72
2022-07-25T12:06:48.877Z,3.15
2022-07-25T12:09:19.617Z,2.83
2022-07-25T12:11:48.697Z,2.80
2022-07-25T12:14:16.720Z,2.47
2022-07-25T12:16:44.242Z,2.50
2022-07-25T12:19:20.027Z,2.50
2022-07-25T12:21:47.822Z,2.47
2022-07-25T12:24:15.110Z,2.33
2022-07-25T12:26:42.752Z,2.20
2022-07-25T12:29:10.576Z,2.40
2022-07-25T12:31:38.027Z,2.35
2022-07-25T12:34:05.209Z,2.33
2022-07-25T12:36:34.469Z,2.60
2022-07-25T12:39:02.135Z,2.30
2022-07-25T12:41:29.382Z,2.58
2022-07-25T12:43:58.966Z,2.17
2022-07-25T12:46:26.399Z,2.30
2022-07-25T12:48:53.862Z,2.63
2022-07-25T12:51:21.332Z,2.65
2022-07-25T12:53:48.706Z,2.60
2022-07-25T12:56:16.208Z,2.58
2022-07-25T12:58:43.584Z,2.75
2022-07-25T13:01:13.721Z,2.50
2022-07-25T13:03:40.998Z,2.70
2022-07-25T13:06:08.599Z,3.17
2022-07-25T13:08:37.937Z,2.58
2022-07-25T13:11:05.333Z,2.63
2022-07-25T13:13:32.767Z,2.53
2022-07-25T13:16:00.052Z,2.90
2022-07-25T13:18:27.319Z,2.47
2022-07-25T13:20:54.716Z,2.70
2022-07-25T13:23:22.082Z,2.30
2022-07-25T13:25:49.484Z,2.28
2022-07-25T13:28:17.090Z,2.05
2022-07-25T13:30:44.335Z,2.20
2022-07-25T13:33:11.581Z,2.40
2022-07-25T13:35:39.758Z,2.10
2022-07-25T13:38:10.305Z,1.90
2022-07-25T13:40:42.121Z,2.17
2022-07-25T13:43:11.089Z,2.88
2022-07-25T13:45:38.858Z,1.98
2022-07-25T13:48:28.406Z,2.30
2022-07-25T13:50:54.075Z,2.38
2022-07-25T13:53:23.621Z,2.08
2022-07-25T13:55:54.040Z,1.80
2022-07-25T13:58:21.555Z,2.15
2022-07-25T14:00:48.859Z,2.20
2022-07-25T14:03:16.258Z,2.33
2022-07-25T14:05:43.738Z,1.77
2022-07-25T14:08:11.001Z,1.65
2022-07-25T14:10:38.378Z,2.20
2022-07-25T14:13:05.873Z,2.15
2022-07-25T14:15:33.159Z,2.17
2022-07-25T14:18:00.375Z,1.98
2022-07-25T14:20:27.811Z,1.95
2022-07-25T14:22:55.306Z,2.15
2022-07-25T14:25:22.857Z,1.90
2022-07-25T14:27:50.271Z,2.13
2022-07-25T14:30:17.664Z,1.55
2022-07-25T14:32:44.841Z,2.17
2022-07-25T14:35:12.269Z,2.20
2022-07-25T14:37:39.563Z,1.98
2022-07-25T14:40:07.630Z,2.13
2022-07-25T14:42:35.075Z,2.20
2022-07-25T14:45:02.455Z,1.98
2022-07-25T14:47:29.647Z,1.90
2022-07-25T14:49:57.169Z,2.35
2022-07-25T14:52:24.911Z,2.05
2022-07-25T14:54:52.083Z,2.28
2022-07-25T14:57:19.624Z,2.22
2022-07-25T14:59:47.011Z,2.08
2022-07-25T15:02:14.402Z,1.75
2022-07-25T15:04:42.337Z,2.67
2022-07-25T15:07:09.671Z,1.95
2022-07-25T15:09:37.046Z,2.10
2022-07-25T15:12:04.834Z,1.83
2022-07-25T15:14:32.187Z,1.80
2022-07-25T15:16:59.680Z,2.08
2022-07-25T15:19:27.723Z,2.25
2022-07-25T15:21:55.146Z,2.00
2022-07-25T15:24:27.142Z,2.20
2022-07-25T15:27:15.425Z,2.22
2022-07-25T15:29:42.709Z,1.77
2022-07-25T15:32:10.145Z,2.05
2022-07-25T15:34:37.442Z,1.92
2022-07-25T15:37:04.872Z,1.83
2022-07-25T15:39:32.429Z,1.80
2022-07-25T15:42:00.799Z,2.17
2022-07-25T15:44:28.038Z,1.83
2022-07-25T15:46:55.633Z,1.92
2022-07-25T15:49:23.896Z,1.95
2022-07-25T15:51:51.182Z,1.80
2022-07-25T15:54:18.669Z,2.20
2022-07-25T15:56:45.966Z,2.15
2022-07-25T15:59:13.361Z,1.55
2022-07-25T16:01:42.898Z,1.77
2022-07-25T16:04:11.051Z,1.63
2022-07-25T16:06:38.337Z,1.70
2022-07-25T16:09:06.590Z,1.70
2022-07-25T16:11:35.767Z,1.83
2022-07-25T16:14:02.982Z,1.80
2022-07-25T16:16:30.641Z,1.83
2022-07-25T16:18:57.935Z,1.95
2022-07-25T16:21:25.157Z,1.55
2022-07-25T16:23:52.578Z,1.80
2022-07-25T16:26:19.873Z,1.75
2022-07-25T16:28:48.056Z,1.85
2022-07-25T16:31:15.643Z,1.52
2022-07-25T16:33:42.918Z,1.58
2022-07-25T16:36:11.771Z,1.75
2022-07-25T16:38:39.541Z,2.05
2022-07-25T16:41:06.836Z,1.85
2022-07-25T16:43:34.048Z,1.60
2022-07-25T16:46:02.291Z,1.30
2022-07-25T16:48:30.611Z,1.50
2022-07-25T16:50:58.107Z,1.70
2022-07-25T16:53:25.661Z,1.80
2022-07-25T16:55:53.041Z,1.40
2022-07-25T16:58:20.255Z,1.58
2022-07-25T17:00:47.751Z,2.00
2022-07-25T17:03:15.790Z,1.70
2022-07-25T17:05:43.147Z,1.70
2022-07-25T17:08:10.815Z,1.67
2022-07-25T17:10:38.096Z,1.73
2022-07-25T17:13:05.293Z,1.67
2022-07-25T17:15:32.805Z,1.70
2022-07-25T17:18:00.221Z,1.60
2022-07-25T17:20:27.423Z,1.30
2022-07-25T17:22:54.853Z,1.40
2022-07-25T17:25:22.234Z,1.83
2022-07-25T17:27:49.508Z,1.50
2022-07-25T17:30:17.059Z,1.50
2022-07-25T17:32:44.364Z,1.60
2022-07-25T17:35:11.660Z,1.30
2022-07-25T17:37:40.671Z,1.50
2022-07-25T17:40:10.740Z,1.30
2022-07-25T17:42:44.619Z,1.58
2022-07-25T17:45:13.047Z,1.63
2022-07-25T17:47:40.813Z,1.67
2022-07-25T17:50:08.452Z,1.40
2022-07-25T17:52:36.013Z,1.83
2022-07-25T17:55:03.748Z,1.52
2022-07-25T17:57:31.092Z,1.65
2022-07-25T17:59:58.567Z,1.50
2022-07-25T18:02:26.042Z,1.67
2022-07-25T18:04:53.249Z,1.55
2022-07-25T18:07:21.111Z,1.98
2022-07-25T18:09:48.479Z,1.50
2022-07-25T18:12:15.690Z,2.17
2022-07-25T18:14:43.890Z,1.33
2022-07-25T18:17:11.292Z,1.60
2022-07-25T18:19:38.612Z,1.42
2022-07-25T18:22:06.541Z,1.25
2022-07-25T18:24:33.870Z,1.67
2022-07-25T18:27:01.418Z,1.98
2022-07-25T18:29:28.896Z,1.90
2022-07-25T18:31:56.123Z,1.63
2022-07-25T18:34:23.358Z,1.50
2022-07-25T18:36:50.869Z,1.60
2022-07-25T18:39:18.118Z,1.90
2022-07-25T18:41:45.335Z,2.22
2022-07-25T18:44:12.764Z,1.70
2022-07-25T18:46:40.375Z,1.85
2022-07-25T18:49:08.634Z,1.77
2022-07-25T18:51:36.353Z,1.90
2022-07-25T18:54:04.286Z,1.75
2022-07-25T18:56:31.823Z,2.03
2022-07-25T18:59:00.100Z,2.08
2022-07-25T19:01:27.428Z,2.17
2022-07-25T19:03:56.763Z,2.40
2022-07-25T19:06:24.466Z,1.98
2022-07-25T19:08:52.812Z,2.15
2022-07-25T19:11:20.152Z,2.15
2022-07-25T19:13:49.984Z,1.95
2022-07-25T19:16:18.246Z,2.10
2022-07-25T19:18:45.761Z,2.72
2022-07-25T19:21:13.651Z,2.63
2022-07-25T19:23:40.874Z,2.17
2022-07-25T19:26:08.316Z,2.10
2022-07-25T19:28:36.093Z,2.40
2022-07-25T19:31:03.987Z,2.30
2022-07-25T19:33:34.967Z,2.17
2022-07-25T19:36:04.708Z,2.10
2022-07-25T19:38:32.483Z,2.42
2022-07-25T19:41:00.002Z,2.80
2022-07-25T19:43:28.149Z,2.72
2022-07-25T19:45:55.591Z,2.40
2022-07-25T19:48:24.325Z,3.05
2022-07-25T19:50:52.940Z,2.63
2022-07-25T19:53:25.341Z,3.25
2022-07-25T19:55:55.709Z,2.50
2022-07-25T19:58:23.718Z,2.50
2022-07-25T20:00:51.007Z,2.90
2022-07-25T20:03:23.399Z,2.90
2022-07-25T20:05:51.635Z,2.88
2022-07-25T20:08:19.184Z,2.55
2022-07-25T20:10:49.841Z,2.70
2022-07-25T20:13:17.281Z,2.90
2022-07-25T20:15:45.165Z,3.08
2022-07-25T20:18:17.416Z,2.92
2022-07-25T20:20:47.568Z,2.58
2022-07-25T20:23:14.800Z,2.55
2022-07-25T20:25:42.076Z,2.90
2022-07-25T20:28:09.570Z,2.50
2022-07-25T20:30:37.053Z,2.88
2022-07-25T20:33:05.535Z,3.15
2022-07-25T20:35:38.303Z,2.47
2022-07-25T20:38:09.374Z,2.78
2022-07-25T20:40:43.908Z,3.13
2022-07-25T20:43:15.776Z,3.00
2022-07-25T20:45:43.199Z,3.10
2022-07-25T20:48:10.879Z,3.25
2022-07-25T20:50:39.483Z,2.97
2022-07-25T20:53:08.193Z,2.80
2022-07-25T20:55:36.452Z,2.42
2022-07-25T20:58:04.660Z,2.97
2022-07-25T21:00:32.767Z,2.97
2022-07-25T21:03:01.247Z,3.40
2022-07-25T21:05:29.173Z,2.90
2022-07-25T21:07:56.913Z,2.83
2022-07-25T21:10:24.311Z,2.90
2022-07-25T21:12:51.894Z,2.65
2022-07-25T21:15:19.233Z,2.65
2022-07-25T21:17:46.585Z,2.92
2022-07-25T21:20:14.256Z,2.70
2022-07-25T21:22:42.374Z,2.70
2022-07-25T21:25:10.790Z,2.85
2022-07-25T21:27:38.864Z,3.35
2022-07-25T21:30:08.375Z,2.63
2022-07-25T21:32:35.720Z,2.67
2022-07-25T21:35:05.009Z,2.45
2022-07-25T21:37:32.325Z,3.30
2022-07-25T21:39:59.915Z,2.80
2022-07-25T21:42:27.442Z,2.70
2022-07-25T21:44:54.716Z,2.60
2022-07-25T21:47:21.961Z,2.53
2022-07-25T21:50:07.951Z,2.90
2022-07-25T21:52:35.342Z,2.80
2022-07-25T21:55:04.477Z,2.90
2022-07-25T21:57:31.965Z,2.83
2022-07-25T21:59:59.644Z,3.05
2022-07-25T22:02:27.248Z,2.78
2022-07-25T22:04:54.793Z,2.45
2022-07-25T22:07:23.051Z,3.00
2022-07-25T22:09:50.632Z,3.17
2022-07-25T22:12:18.209Z,2.70
2022-07-25T22:14:45.759Z,2.60
2022-07-25T22:17:13.874Z,3.00
2022-07-25T22:19:41.294Z,2.50
2022-07-25T22:22:08.623Z,2.45
2022-07-25T22:24:37.287Z,2.30
2022-07-25T22:27:04.734Z,2.78
2022-07-25T22:29:32.065Z,2.67
2022-07-25T22:32:00.174Z,3.08
2022-07-25T22:34:27.618Z,2.25
2022-07-25T22:36:54.859Z,2.67
2022-07-25T22:39:22.454Z,2.67
2022-07-25T22:41:49.769Z,3.13
2022-07-25T22:44:17.237Z,2.53
2022-07-25T22:46:44.860Z,2.72
2022-07-25T22:49:12.812Z,2.50
2022-07-25T22:51:40.390Z,2.72
2022-07-25T22:54:08.013Z,2.80
2022-07-25T22:56:35.862Z,2.63
2022-07-25T22:59:03.181Z,2.80
2022-07-25T23:01:30.656Z,2.90
2022-07-25T23:03:58.130Z,3.25
2022-07-25T23:06:25.443Z,3.17
2022-07-25T23:08:53.163Z,3.13
2022-07-25T23:11:20.559Z,3.15
2022-07-25T23:13:47.979Z,2.75
2022-07-25T23:16:15.978Z,3.20
2022-07-25T23:18:43.304Z,3.03
2022-07-25T23:21:11.166Z,3.45
2022-07-25T23:23:38.665Z,3.05
2022-07-25T23:26:05.987Z,3.10
2022-07-25T23:28:33.329Z,2.83
2022-07-25T23:31:01.435Z,3.15
2022-07-25T23:33:29.370Z,2.88
2022-07-25T23:35:57.740Z,2.72
2022-07-25T23:38:25.202Z,2.92
2022-07-25T23:40:54.184Z,2.92
2022-07-25T23:43:34.834Z,2.90
2022-07-25T23:46:09.659Z,2.90
2022-07-25T23:48:39.091Z,2.90
2022-07-25T23:51:06.796Z,2.78
2022-07-25T23:53:35.937Z,2.92
2022-07-25T23:56:03.579Z,2.95
2022-07-25T23:58:30.946Z,3.05
